Time;durP1;ratioP1;P1;durP2;ratioP2;P2;SDS_P1;SDS_P2;PMS_P1;PMS_P2;Temp;Humidity;BMP_temperature;BMP_pressure;BME280_temperature;BME280_humidity;BME280_pressure;Samples;Min_cycle;Max_cycle;Signal;HPM_P1;HPM_P2
2022/01/16 00:07:09;;;;;;;20.25;12.10;;;;;;;;;;10368636;28;20109;-55
2022/01/16 00:12:11;;;;;;;25.00;12.57;;;;;;;;;;10367174;28;20038;-51
2022/01/16 00:17:11;;;;;;;30.60;11.80;;;;;;;;;;10367482;28;20105;-60
2022/01/16 00:22:14;;;;;;;20.10;11.05;;;;;;;;;;10366767;28;20145;-59
2022/01/16 00:27:15;;;;;;;38.65;11.95;;;;;;;;;;10367500;28;20113;-62
2022/01/16 00:32:15;;;;;;;19.85;10.82;;;;;;;;;;10367679;28;20123;-56
2022/01/16 00:37:16;;;;;;;23.30;10.83;;;;;;;;;;10367586;28;20021;-50
2022/01/16 00:42:16;;;;;;;22.67;11.52;;;;;;;;;;10367852;28;20768;-52
2022/01/16 00:47:17;;;;;;;20.03;11.10;;;;;;;;;;10364499;28;20026;-53
2022/01/16 00:52:19;;;;;;;23.88;10.82;;;;;;;;;;10367769;28;20478;-58
2022/01/16 00:57:19;;;;;;;21.63;11.57;;;;;;;;;;10366672;28;20033;-63
2022/01/16 01:02:20;;;;;;;15.13;10.40;;;;;;;;;;10374391;28;20363;-54
2022/01/16 01:07:20;;;;;;;18.00;10.23;;;;;;;;;;10373639;28;20522;-61
2022/01/16 01:12:40;;;;;;;20.02;10.23;;;;;;;;;;10374045;28;20479;-62
2022/01/16 01:17:45;;;;;;;16.20;10.00;;;;;;;;;;10374377;28;20092;-63
2022/01/16 01:22:48;;;;;;;17.88;9.95;;;;;;;;;;10374711;28;20030;-63
2022/01/16 01:27:48;;;;;;;17.38;9.93;;;;;;;;;;10375173;28;20024;-63
2022/01/16 01:32:49;;;;;;;18.45;9.50;;;;;;;;;;10373592;28;20531;-63
2022/01/16 01:37:49;;;;;;;18.60;10.02;;;;;;;;;;10374274;28;20104;-62
2022/01/16 01:51:03;;;;;;;19.88;9.05;;;;;;;;;;10371765;28;20240;-61
2022/01/16 01:53:38;;;;;;;14.43;9.07;;;;;;;;;;10369734;28;20136;-64
2022/01/16 01:58:38;;;;;;;17.48;9.77;;;;;;;;;;10369888;28;20026;-63
2022/01/16 02:08:44;;;;;;;16.00;9.07;;;;;;;;;;10371168;28;20026;-64
2022/01/16 02:14:12;;;;;;;14.68;8.93;;;;;;;;;;10371533;28;20034;-62
2022/01/16 02:35:04;;;;;;;12.50;8.00;;;;;;;;;;10371605;28;20008;-64
2022/01/16 02:40:14;;;;;;;13.07;8.73;;;;;;;;;;10371387;28;20034;-52
2022/01/16 02:45:27;;;;;;;15.52;8.60;;;;;;;;;;10369992;28;20054;-50
2022/01/16 02:50:29;;;;;;;15.93;8.77;;;;;;;;;;10371380;28;20064;-52
2022/01/16 02:55:29;;;;;;;13.90;7.95;;;;;;;;;;10370640;28;20049;-52
2022/01/16 03:00:30;;;;;;;13.55;8.10;;;;;;;;;;10367467;28;20053;-54
2022/01/16 03:05:31;;;;;;;13.23;7.50;;;;;;;;;;10367262;28;20034;-46
2022/01/16 03:10:57;;;;;;;16.73;8.40;;;;;;;;;;10370648;28;20491;-65
2022/01/16 03:15:58;;;;;;;12.88;7.55;;;;;;;;;;10369738;28;20204;-61
2022/01/16 03:26:17;;;;;;;13.52;7.97;;;;;;;;;;10370087;28;20381;-56
2022/01/16 03:31:17;;;;;;;11.40;7.50;;;;;;;;;;10369373;28;20030;-55
2022/01/16 03:36:18;;;;;;;13.97;7.17;;;;;;;;;;10369238;28;20442;-56
2022/01/16 03:41:18;;;;;;;10.63;7.03;;;;;;;;;;10369139;28;21254;-59
2022/01/16 03:46:19;;;;;;;10.15;6.82;;;;;;;;;;10368860;28;20460;-60
2022/01/16 03:51:19;;;;;;;13.37;6.80;;;;;;;;;;10368664;28;20029;-51
2022/01/16 03:56:19;;;;;;;9.97;6.67;;;;;;;;;;10368480;28;20523;-63
2022/01/16 04:01:20;;;;;;;10.70;7.35;;;;;;;;;;10367985;28;20022;-50
2022/01/16 04:06:21;;;;;;;14.35;7.70;;;;;;;;;;10365508;28;20034;-66
2022/01/16 04:11:25;;;;;;;12.95;7.25;;;;;;;;;;10365011;28;20034;-66
2022/01/16 04:16:25;;;;;;;11.00;7.00;;;;;;;;;;10368012;28;20046;-52
2022/01/16 04:21:27;;;;;;;12.63;6.73;;;;;;;;;;10367964;28;20037;-56
2022/01/16 04:26:27;;;;;;;11.07;7.03;;;;;;;;;;10368147;28;20510;-62
2022/01/16 04:31:27;;;;;;;11.85;6.18;;;;;;;;;;10370347;28;20496;-63
2022/01/16 04:36:28;;;;;;;12.13;6.83;;;;;;;;;;10375417;28;20388;-62
2022/01/16 04:46:48;;;;;;;11.75;6.72;;;;;;;;;;10376453;28;20042;-64
2022/01/16 04:51:48;;;;;;;9.73;6.15;;;;;;;;;;10375948;28;20030;-57
2022/01/16 04:56:49;;;;;;;9.32;6.65;;;;;;;;;;10375818;28;20022;-58
2022/01/16 05:01:49;;;;;;;8.53;6.20;;;;;;;;;;10375349;28;20030;-62
2022/01/16 05:06:49;;;;;;;9.17;6.47;;;;;;;;;;10375513;28;20432;-64
2022/01/16 05:11:55;;;;;;;9.00;5.93;;;;;;;;;;10371233;28;20489;-62
2022/01/16 05:16:55;;;;;;;11.82;6.47;;;;;;;;;;10371789;28;20796;-53
2022/01/16 05:21:56;;;;;;;8.10;5.93;;;;;;;;;;10374499;28;20316;-66
2022/01/16 05:26:56;;;;;;;8.65;6.22;;;;;;;;;;10374313;28;20969;-61
2022/01/16 05:31:56;;;;;;;16.50;5.93;;;;;;;;;;10373899;28;20125;-64
2022/01/16 05:36:57;;;;;;;8.30;5.87;;;;;;;;;;10373831;28;20435;-63
2022/01/16 05:41:58;;;;;;;7.83;5.40;;;;;;;;;;10373563;28;20955;-50
2022/01/16 05:47:02;;;;;;;8.30;5.90;;;;;;;;;;10373568;28;20456;-53
2022/01/16 05:52:02;;;;;;;8.13;5.80;;;;;;;;;;10373585;28;20034;-55
2022/01/16 05:57:03;;;;;;;8.43;6.10;;;;;;;;;;10374145;28;20044;-56
2022/01/16 06:02:04;;;;;;;10.13;5.38;;;;;;;;;;10372944;28;20358;-50
2022/01/16 06:07:05;;;;;;;8.60;5.35;;;;;;;;;;10373365;28;20041;-55
2022/01/16 06:12:06;;;;;;;8.50;5.25;;;;;;;;;;10372612;28;20080;-52
2022/01/16 06:17:07;;;;;;;7.20;5.30;;;;;;;;;;10368966;28;20034;-51
2022/01/16 06:22:07;;;;;;;8.15;5.60;;;;;;;;;;10368340;28;20378;-51
2022/01/16 06:27:08;;;;;;;8.73;5.77;;;;;;;;;;10372067;28;20025;-49
2022/01/16 06:32:08;;;;;;;7.10;5.03;;;;;;;;;;10371349;28;21082;-48
2022/01/16 06:37:18;;;;;;;7.53;5.13;;;;;;;;;;10369966;28;20481;-49
2022/01/16 06:42:18;;;;;;;6.50;4.88;;;;;;;;;;10371488;28;20018;-52
2022/01/16 06:47:19;;;;;;;7.78;5.30;;;;;;;;;;10371230;28;20036;-49
2022/01/16 06:52:19;;;;;;;7.93;5.22;;;;;;;;;;10370814;28;20029;-48
2022/01/16 06:57:20;;;;;;;7.15;5.35;;;;;;;;;;10369736;28;20398;-61
2022/01/16 07:02:22;;;;;;;7.18;4.82;;;;;;;;;;10370078;28;20025;-60
2022/01/16 07:07:22;;;;;;;8.50;5.10;;;;;;;;;;10370256;28;20030;-61
2022/01/16 07:12:23;;;;;;;7.37;4.73;;;;;;;;;;10370021;28;20045;-62
2022/01/16 07:17:23;;;;;;;7.17;5.70;;;;;;;;;;10369564;28;20535;-63
2022/01/16 07:22:23;;;;;;;7.67;4.80;;;;;;;;;;10367320;28;20455;-63
2022/01/16 07:27:24;;;;;;;8.02;5.00;;;;;;;;;;10367176;28;20054;-62
2022/01/16 07:32:24;;;;;;;7.67;4.83;;;;;;;;;;10368956;28;20029;-63
2022/01/16 07:37:25;;;;;;;6.43;4.75;;;;;;;;;;10369596;28;20456;-63
2022/01/16 07:42:26;;;;;;;6.90;5.15;;;;;;;;;;10369448;28;20122;-58
2022/01/16 07:47:26;;;;;;;9.23;4.93;;;;;;;;;;10368728;28;20026;-61
2022/01/16 07:52:26;;;;;;;7.07;4.30;;;;;;;;;;10368950;28;20463;-60
2022/01/16 07:57:27;;;;;;;6.10;4.80;;;;;;;;;;10368702;28;20574;-62
2022/01/16 08:02:27;;;;;;;7.53;5.10;;;;;;;;;;10367679;28;20022;-63
2022/01/16 08:07:28;;;;;;;10.77;4.78;;;;;;;;;;10368884;28;20021;-64
2022/01/16 08:12:28;;;;;;;6.67;5.00;;;;;;;;;;10367955;28;20446;-64
2022/01/16 08:17:28;;;;;;;13.60;4.63;;;;;;;;;;10368545;28;20538;-60
2022/01/16 08:22:29;;;;;;;8.80;4.18;;;;;;;;;;10368184;28;20415;-64
2022/01/16 08:27:29;;;;;;;11.85;4.43;;;;;;;;;;10361171;28;20045;-64
2022/01/16 08:32:30;;;;;;;28.13;14.50;;;;;;;;;;10367760;28;20030;-59
2022/01/16 08:37:30;;;;;;;11.75;6.93;;;;;;;;;;10367663;28;20417;-60
2022/01/16 08:42:31;;;;;;;19.73;7.03;;;;;;;;;;10367529;28;20026;-58
2022/01/16 08:47:32;;;;;;;11.98;6.55;;;;;;;;;;10367502;28;20792;-47
2022/01/16 08:52:32;;;;;;;11.45;6.30;;;;;;;;;;10367214;28;20113;-57
2022/01/16 08:57:33;;;;;;;10.90;6.30;;;;;;;;;;10366886;28;20026;-58
2022/01/16 09:02:33;;;;;;;11.30;6.37;;;;;;;;;;10367042;28;20101;-60
2022/01/16 09:07:33;;;;;;;8.67;5.87;;;;;;;;;;10367022;28;20450;-56
2022/01/16 09:12:35;;;;;;;7.07;5.40;;;;;;;;;;10366769;28;20074;-59
2022/01/16 09:17:37;;;;;;;10.13;6.60;;;;;;;;;;10368772;28;20033;-54
2022/01/16 09:22:39;;;;;;;12.85;6.35;;;;;;;;;;10350503;28;20026;-56
2022/01/16 09:27:40;;;;;;;9.43;6.20;;;;;;;;;;10336882;28;20058;-49
2022/01/16 09:32:40;;;;;;;9.38;6.03;;;;;;;;;;10336103;28;20120;-56
2022/01/16 09:37:41;;;;;;;7.03;5.85;;;;;;;;;;10339649;28;20100;-53
2022/01/16 09:42:46;;;;;;;9.25;5.95;;;;;;;;;;10339320;28;20030;-53
2022/01/16 09:47:48;;;;;;;10.70;6.30;;;;;;;;;;10339480;28;20033;-52
2022/01/16 09:52:49;;;;;;;10.93;6.13;;;;;;;;;;10341522;28;20038;-50
2022/01/16 09:57:50;;;;;;;10.25;6.13;;;;;;;;;;10343904;28;20540;-48
2022/01/16 10:08:27;;;;;;;33.47;20.08;;;;;;;;;;10485209;28;20676;-60
2022/01/16 10:13:36;;;;;;;23.52;17.63;;;;;;;;;;10465940;28;20043;-63
2022/01/16 10:18:41;;;;;;;35.65;21.67;;;;;;;;;;10448182;28;20094;-61
2022/01/16 10:23:44;;;;;;;29.45;19.70;;;;;;;;;;10447967;28;20226;-62
2022/01/16 10:28:44;;;;;;;44.60;25.50;;;;;;;;;;10448450;28;20214;-64
2022/01/16 10:34:05;;;;;;;45.17;26.50;;;;;;;;;;10445636;28;20105;-61
2022/01/16 10:39:10;;;;;;;51.90;34.42;;;;;;;;;;10419750;28;20036;-60
2022/01/16 10:46:46;;;;;;;42.50;28.85;;;;;;;;;;10483398;28;20938;-59
2022/01/16 10:52:09;;;;;;;59.93;37.43;;;;;;;;;;10476562;28;20033;-58
2022/01/16 10:57:22;;;;;;;58.95;37.08;;;;;;;;;;10450018;28;20437;-56
2022/01/16 11:02:23;;;;;;;52.13;34.33;;;;;;;;;;10447866;28;20063;-57
2022/01/16 11:07:23;;;;;;;61.17;39.08;;;;;;;;;;10450052;28;20190;-61
2022/01/16 11:12:24;;;;;;;56.83;38.63;;;;;;;;;;10449829;28;20143;-58
2022/01/16 11:17:25;;;;;;;63.45;42.55;;;;;;;;;;10448955;28;20035;-60
2022/01/16 11:22:35;;;;;;;80.80;48.15;;;;;;;;;;10447694;28;20488;-59
2022/01/16 11:27:35;;;;;;;73.88;45.47;;;;;;;;;;10445827;28;20025;-58
2022/01/16 11:32:36;;;;;;;77.18;47.88;;;;;;;;;;10448244;28;20033;-59
2022/01/16 11:37:40;;;;;;;83.18;53.13;;;;;;;;;;10442946;28;20021;-61
2022/01/16 11:42:40;;;;;;;79.00;52.15;;;;;;;;;;10442586;28;20538;-59
2022/01/16 11:48:07;;;;;;;70.60;47.77;;;;;;;;;;10446580;28;20275;-58
2022/01/16 11:53:08;;;;;;;71.32;46.17;;;;;;;;;;10447408;28;20028;-61
2022/01/16 11:58:08;;;;;;;72.93;45.20;;;;;;;;;;10420112;28;20489;-64
2022/01/16 12:03:34;;;;;;;67.22;46.05;;;;;;;;;;10419114;28;20478;-61
2022/01/16 12:08:35;;;;;;;90.72;56.20;;;;;;;;;;10420068;28;20464;-61
2022/01/16 12:13:48;;;;;;;64.03;44.22;;;;;;;;;;10438108;28;20067;-62
2022/01/16 12:18:49;;;;;;;59.65;39.55;;;;;;;;;;10452999;28;20025;-62
2022/01/16 12:23:50;;;;;;;59.78;38.92;;;;;;;;;;10452563;28;20115;-62
2022/01/16 12:28:58;;;;;;;59.37;38.97;;;;;;;;;;10454410;28;20029;-62
2022/01/16 12:34:01;;;;;;;59.65;38.08;;;;;;;;;;10454113;28;20104;-62
2022/01/16 12:39:06;;;;;;;56.10;36.15;;;;;;;;;;10451065;28;20056;-62
2022/01/16 12:44:12;;;;;;;57.13;36.35;;;;;;;;;;10453372;28;20041;-62
2022/01/16 12:49:26;;;;;;;49.67;34.60;;;;;;;;;;10450503;28;20115;-62
2022/01/16 12:54:30;;;;;;;50.25;33.00;;;;;;;;;;10451902;28;20025;-62
2022/01/16 12:59:36;;;;;;;54.63;34.33;;;;;;;;;;10451558;28;20025;-62
2022/01/16 13:04:38;;;;;;;52.75;34.28;;;;;;;;;;10452363;28;20033;-62
2022/01/16 13:09:39;;;;;;;52.22;33.35;;;;;;;;;;10451350;28;20472;-62
2022/01/16 13:14:42;;;;;;;49.03;31.48;;;;;;;;;;10450419;28;20040;-62
2022/01/16 13:25:07;;;;;;;46.23;30.63;;;;;;;;;;10450683;28;20038;-62
2022/01/16 13:30:27;;;;;;;44.13;29.27;;;;;;;;;;10450992;28;20068;-62
2022/01/16 13:35:29;;;;;;;45.95;26.50;;;;;;;;;;10451445;28;20025;-62
2022/01/16 13:40:30;;;;;;;40.63;26.30;;;;;;;;;;10451361;28;20419;-62
2022/01/16 13:45:35;;;;;;;36.75;24.92;;;;;;;;;;10450895;28;20369;-62
2022/01/16 13:50:57;;;;;;;31.17;22.30;;;;;;;;;;10444031;28;20585;-61
2022/01/16 13:56:00;;;;;;;34.58;23.30;;;;;;;;;;10449807;28;20480;-65
2022/01/16 14:01:15;;;;;;;32.05;21.50;;;;;;;;;;10450528;28;20025;-59
2022/01/16 14:06:16;;;;;;;33.38;22.48;;;;;;;;;;10451060;28;20132;-59
2022/01/16 14:11:20;;;;;;;33.95;19.98;;;;;;;;;;10449810;28;20500;-61
2022/01/16 14:16:21;;;;;;;31.23;20.85;;;;;;;;;;10448758;28;20091;-63
2022/01/16 14:26:51;;;;;;;30.08;19.00;;;;;;;;;;10446331;28;20037;-62
2022/01/16 14:31:53;;;;;;;34.55;20.15;;;;;;;;;;10448063;28;20403;-63
2022/01/16 14:36:54;;;;;;;33.83;18.63;;;;;;;;;;10447782;28;20254;-62
2022/01/16 14:41:55;;;;;;;26.30;18.38;;;;;;;;;;10447569;28;20274;-63
2022/01/16 14:46:57;;;;;;;31.17;18.40;;;;;;;;;;10448721;28;20029;-62
2022/01/16 14:51:57;;;;;;;25.48;17.60;;;;;;;;;;10440136;28;20484;-58
2022/01/16 14:56:57;;;;;;;26.13;16.97;;;;;;;;;;10442186;28;20171;-63
2022/01/16 15:01:58;;;;;;;22.88;17.15;;;;;;;;;;10413245;28;20438;-60
2022/01/16 15:06:59;;;;;;;25.58;17.00;;;;;;;;;;10414156;28;20025;-59
2022/01/16 15:12:00;;;;;;;24.40;17.63;;;;;;;;;;10413997;28;20114;-59
2022/01/16 15:17:00;;;;;;;24.33;16.38;;;;;;;;;;10413973;28;20102;-58
2022/01/16 15:27:11;;;;;;;23.35;14.30;;;;;;;;;;10413949;28;20124;-59
2022/01/16 15:32:11;;;;;;;19.13;13.85;;;;;;;;;;10419814;28;20484;-59
2022/01/16 15:37:16;;;;;;;17.67;14.10;;;;;;;;;;10420085;28;20030;-60
2022/01/16 15:42:17;;;;;;;19.92;13.20;;;;;;;;;;10419841;28;20045;-63
2022/01/16 15:47:18;;;;;;;18.25;13.80;;;;;;;;;;10421094;28;20036;-61
2022/01/16 15:52:18;;;;;;;23.85;13.18;;;;;;;;;;10419855;28;20114;-64
2022/01/16 15:57:20;;;;;;;17.88;12.70;;;;;;;;;;10417476;28;20021;-62
2022/01/16 16:02:26;;;;;;;16.88;12.13;;;;;;;;;;10424332;28;20028;-61
2022/01/16 16:07:27;;;;;;;19.65;12.40;;;;;;;;;;10425921;28;20036;-58
2022/01/16 16:12:27;;;;;;;20.20;12.10;;;;;;;;;;10424524;28;20033;-61
2022/01/16 16:17:33;;;;;;;17.88;11.57;;;;;;;;;;10422588;28;20434;-57
2022/01/16 16:22:33;;;;;;;20.10;11.85;;;;;;;;;;10418325;28;20480;-60
2022/01/16 16:27:34;;;;;;;16.23;11.60;;;;;;;;;;10424480;28;20068;-61
2022/01/16 16:32:34;;;;;;;15.23;11.98;;;;;;;;;;10424627;28;20481;-60
2022/01/16 16:37:34;;;;;;;20.87;11.67;;;;;;;;;;10421464;28;20044;-59
2022/01/16 16:42:36;;;;;;;20.77;11.67;;;;;;;;;;10423333;28;21056;-59
2022/01/16 16:47:36;;;;;;;15.20;11.18;;;;;;;;;;10424107;28;20437;-62
2022/01/16 16:52:36;;;;;;;15.10;10.45;;;;;;;;;;10424283;28;20021;-61
2022/01/16 16:57:37;;;;;;;15.87;10.83;;;;;;;;;;10420762;28;20017;-59
2022/01/16 17:02:37;;;;;;;17.17;10.47;;;;;;;;;;10420569;28;20961;-59
2022/01/16 17:07:38;;;;;;;16.88;10.77;;;;;;;;;;10423765;28;20200;-60
2022/01/16 17:12:39;;;;;;;19.52;10.38;;;;;;;;;;10422981;28;20534;-61
2022/01/16 17:17:41;;;;;;;18.83;10.13;;;;;;;;;;10423051;28;20097;-58
2022/01/16 17:22:41;;;;;;;17.60;9.93;;;;;;;;;;10421823;28;20036;-59
2022/01/16 17:27:42;;;;;;;13.03;9.70;;;;;;;;;;10422095;28;20358;-59
2022/01/16 17:32:42;;;;;;;13.00;9.53;;;;;;;;;;10418065;28;20159;-59
2022/01/16 17:37:42;;;;;;;19.57;10.07;;;;;;;;;;10420458;28;20434;-58
2022/01/16 17:42:43;;;;;;;18.20;10.35;;;;;;;;;;10417606;28;20528;-58
2022/01/16 17:47:43;;;;;;;18.33;10.00;;;;;;;;;;10418929;28;20330;-58
2022/01/16 17:52:44;;;;;;;15.45;9.57;;;;;;;;;;10414812;28;20470;-58
2022/01/16 17:57:47;;;;;;;15.93;9.30;;;;;;;;;;10414218;28;20599;-59
2022/01/16 18:02:47;;;;;;;18.55;9.63;;;;;;;;;;10407783;28;20465;-60
2022/01/16 18:07:48;;;;;;;15.27;9.35;;;;;;;;;;10414786;28;20025;-60
2022/01/16 18:12:48;;;;;;;16.63;8.87;;;;;;;;;;10413379;28;20025;-59
2022/01/16 18:17:49;;;;;;;23.10;9.77;;;;;;;;;;10415707;28;20434;-57
2022/01/16 18:22:51;;;;;;;17.13;9.60;;;;;;;;;;10415282;28;20519;-59
2022/01/16 18:27:53;;;;;;;24.75;9.10;;;;;;;;;;10414581;28;20028;-60
2022/01/16 18:32:53;;;;;;;19.67;9.75;;;;;;;;;;10414932;28;20291;-63
2022/01/16 18:37:54;;;;;;;16.00;9.13;;;;;;;;;;10413680;28;20497;-59
2022/01/16 18:42:57;;;;;;;15.23;9.60;;;;;;;;;;10413562;28;20493;-60
2022/01/16 18:48:01;;;;;;;20.88;9.35;;;;;;;;;;10414564;28;20025;-59
2022/01/16 18:53:02;;;;;;;32.50;9.77;;;;;;;;;;10413520;28;20445;-64
2022/01/16 18:58:03;;;;;;;24.10;9.40;;;;;;;;;;10413000;28;20032;-62
2022/01/16 19:03:03;;;;;;;16.88;8.85;;;;;;;;;;10407613;28;20108;-61
2022/01/16 19:08:04;;;;;;;23.02;9.98;;;;;;;;;;10415465;28;20025;-60
2022/01/16 19:13:08;;;;;;;19.08;9.30;;;;;;;;;;10440852;28;20032;-61
2022/01/16 19:18:08;;;;;;;16.00;9.65;;;;;;;;;;10455645;28;20109;-61
2022/01/16 19:23:09;;;;;;;21.03;10.27;;;;;;;;;;10456891;28;20029;-61
2022/01/16 19:28:10;;;;;;;17.50;8.90;;;;;;;;;;10456682;28;20468;-61
2022/01/16 19:33:11;;;;;;;18.60;9.65;;;;;;;;;;10454982;28;20056;-60
2022/01/16 19:38:11;;;;;;;16.10;9.63;;;;;;;;;;10454674;28;20116;-60
2022/01/16 19:43:16;;;;;;;17.92;9.05;;;;;;;;;;10455356;28;20053;-60
2022/01/16 19:48:16;;;;;;;20.35;10.77;;;;;;;;;;10455316;28;20247;-61
2022/01/16 19:53:17;;;;;;;17.02;9.68;;;;;;;;;;10453167;28;20248;-60
2022/01/16 19:58:18;;;;;;;17.25;9.93;;;;;;;;;;10454630;28;20025;-60
2022/01/16 20:03:19;;;;;;;19.65;9.85;;;;;;;;;;10454917;28;20025;-60
2022/01/16 20:08:19;;;;;;;21.35;11.73;;;;;;;;;;10450646;28;20354;-60
2022/01/16 20:13:20;;;;;;;16.70;10.43;;;;;;;;;;10448899;28;20060;-60
2022/01/16 20:18:20;;;;;;;16.50;10.18;;;;;;;;;;10452877;28;20026;-61
2022/01/16 20:23:21;;;;;;;18.33;10.80;;;;;;;;;;10453592;28;20025;-60
2022/01/16 20:28:21;;;;;;;19.65;10.88;;;;;;;;;;10453963;28;20430;-61
2022/01/16 20:33:22;;;;;;;16.17;11.13;;;;;;;;;;10451822;28;20021;-61
2022/01/16 20:38:22;;;;;;;27.43;11.30;;;;;;;;;;10451360;28;20557;-60
2022/01/16 20:43:23;;;;;;;20.70;10.63;;;;;;;;;;10453515;28;20080;-60
2022/01/16 20:48:23;;;;;;;20.38;11.10;;;;;;;;;;10453672;28;20953;-61
2022/01/16 20:53:24;;;;;;;19.92;10.38;;;;;;;;;;10452029;28;20275;-60
2022/01/16 20:58:24;;;;;;;19.73;11.20;;;;;;;;;;10453486;28;20032;-60
2022/01/16 21:03:24;;;;;;;19.50;11.17;;;;;;;;;;10453075;28;20029;-60
2022/01/16 21:08:25;;;;;;;21.58;10.93;;;;;;;;;;10452638;28;20426;-60
2022/01/16 21:13:27;;;;;;;18.85;11.43;;;;;;;;;;10449097;28;20052;-60
2022/01/16 21:18:28;;;;;;;16.50;11.18;;;;;;;;;;10453665;28;20024;-60
2022/01/16 21:23:29;;;;;;;16.80;10.93;;;;;;;;;;10448946;28;20025;-60
2022/01/16 21:28:29;;;;;;;18.85;11.43;;;;;;;;;;10451627;28;20453;-60
2022/01/16 21:33:30;;;;;;;16.30;11.07;;;;;;;;;;10451848;28;20061;-60
2022/01/16 21:38:30;;;;;;;17.73;11.18;;;;;;;;;;10451299;28;20033;-60
2022/01/16 21:43:31;;;;;;;19.75;10.88;;;;;;;;;;10451331;28;20324;-60
2022/01/16 21:48:33;;;;;;;16.10;11.10;;;;;;;;;;10451355;28;20112;-60
2022/01/16 21:53:36;;;;;;;22.92;11.48;;;;;;;;;;10450798;28;20040;-60
2022/01/16 21:58:36;;;;;;;19.20;11.00;;;;;;;;;;10450732;28;20090;-60
2022/01/16 22:03:38;;;;;;;17.37;12.00;;;;;;;;;;10449780;28;20122;-60
2022/01/16 22:08:39;;;;;;;18.05;10.95;;;;;;;;;;10450387;28;20422;-60
2022/01/16 22:13:39;;;;;;;19.70;11.77;;;;;;;;;;10450230;28;20025;-60
2022/01/16 22:18:39;;;;;;;16.77;12.02;;;;;;;;;;10450323;28;20431;-60
2022/01/16 22:23:41;;;;;;;19.83;12.43;;;;;;;;;;10447312;28;20114;-60
2022/01/16 22:28:41;;;;;;;21.23;12.50;;;;;;;;;;10447575;28;20036;-60
2022/01/16 22:33:42;;;;;;;30.42;13.38;;;;;;;;;;10450586;28;20021;-60
2022/01/16 22:38:42;;;;;;;21.48;13.20;;;;;;;;;;10449735;28;20056;-60
2022/01/16 22:43:43;;;;;;;19.98;12.77;;;;;;;;;;10449532;28;20507;-60
2022/01/16 22:48:45;;;;;;;29.83;15.27;;;;;;;;;;10448884;28;20028;-62
2022/01/16 22:53:46;;;;;;;23.75;14.55;;;;;;;;;;10448873;28;20494;-61
2022/01/16 22:58:46;;;;;;;32.70;15.97;;;;;;;;;;10449013;28;20049;-62
2022/01/16 23:03:47;;;;;;;24.70;14.73;;;;;;;;;;10447848;28;20462;-60
2022/01/16 23:08:48;;;;;;;27.10;15.70;;;;;;;;;;10449193;28;20427;-61
2022/01/16 23:13:50;;;;;;;25.05;15.63;;;;;;;;;;10448763;28;20017;-60
2022/01/16 23:18:51;;;;;;;22.83;15.75;;;;;;;;;;10449482;28;20055;-61
2022/01/16 23:23:51;;;;;;;22.67;14.53;;;;;;;;;;10445458;28;20036;-60
2022/01/16 23:28:52;;;;;;;33.13;16.00;;;;;;;;;;10448912;28;20452;-60
2022/01/16 23:33:52;;;;;;;24.17;15.93;;;;;;;;;;10447835;28;20446;-61
2022/01/16 23:38:52;;;;;;;22.43;15.73;;;;;;;;;;10445400;28;20021;-60
2022/01/16 23:43:54;;;;;;;26.03;16.23;;;;;;;;;;10448087;28;20527;-60
2022/01/16 23:48:54;;;;;;;27.20;16.27;;;;;;;;;;10448376;28;20107;-60
2022/01/16 23:53:55;;;;;;;28.70;16.20;;;;;;;;;;10454422;28;20099;-60
2022/01/16 23:58:55;;;;;;;27.27;15.68;;;;;;;;;;10454525;28;20954;-60
